createdAt,value
2019-05-10T00:00:19.456Z,2.13
2019-05-10T00:03:07.782Z,2.50
2019-05-10T00:05:56.371Z,2.07
2019-05-10T00:08:45.036Z,2.17
2019-05-10T00:11:29.164Z,1.93
2019-05-10T00:14:07.667Z,1.90
2019-05-10T00:16:38.619Z,1.90
2019-05-10T00:19:09.650Z,2.77
2019-05-10T00:21:40.623Z,2.40
2019-05-10T00:24:11.550Z,2.30
2019-05-10T00:26:43.556Z,2.73
2019-05-10T00:29:14.579Z,2.07
2019-05-10T00:31:45.522Z,2.23
2019-05-10T00:34:16.517Z,1.97
2019-05-10T00:36:47.452Z,2.07
2019-05-10T00:39:19.476Z,2.13
2019-05-10T00:41:50.414Z,2.40
2019-05-10T00:44:21.329Z,2.10
2019-05-10T00:46:52.276Z,1.67
2019-05-10T00:49:23.173Z,1.80
2019-05-10T00:51:54.024Z,1.87
2019-05-10T00:54:25.039Z,2.33
2019-05-10T00:56:55.885Z,1.77
2019-05-10T00:59:26.815Z,1.70
2019-05-10T01:01:57.674Z,1.67
2019-05-10T01:04:28.947Z,2.10
2019-05-10T01:06:59.798Z,2.20
2019-05-10T01:09:30.653Z,2.00
2019-05-10T01:12:01.647Z,2.17
2019-05-10T01:14:32.823Z,1.80
2019-05-10T01:17:03.670Z,1.60
2019-05-10T01:19:34.576Z,1.83
2019-05-10T01:22:05.417Z,2.40
2019-05-10T01:24:36.192Z,1.80
2019-05-10T01:27:07.010Z,2.63
2019-05-10T01:29:37.895Z,2.10
2019-05-10T01:32:08.935Z,2.03
2019-05-10T01:34:39.819Z,2.27
2019-05-10T01:37:10.829Z,2.07
2019-05-10T01:39:41.992Z,2.20
2019-05-10T01:42:12.826Z,2.17
2019-05-10T01:44:43.775Z,2.37
2019-05-10T01:47:14.654Z,2.53
2019-05-10T01:49:45.531Z,2.50
2019-05-10T01:52:16.387Z,1.77
2019-05-10T01:54:47.273Z,1.93
2019-05-10T01:57:18.472Z,1.93
2019-05-10T01:59:49.324Z,2.37
2019-05-10T02:02:20.281Z,2.77
2019-05-10T02:04:51.268Z,2.63
2019-05-10T02:07:22.160Z,2.00
2019-05-10T02:09:53.175Z,2.30
2019-05-10T02:12:23.949Z,2.20
2019-05-10T02:14:54.843Z,2.07
2019-05-10T02:17:25.701Z,2.37
2019-05-10T02:19:56.942Z,2.07
2019-05-10T02:22:27.798Z,1.70
2019-05-10T02:24:58.737Z,2.57
2019-05-10T02:27:29.621Z,2.03
2019-05-10T02:30:00.581Z,2.20
2019-05-10T02:32:31.383Z,2.37
2019-05-10T02:35:02.277Z,1.90
2019-05-10T02:37:33.455Z,1.70
2019-05-10T02:40:04.820Z,2.23
2019-05-10T02:42:35.786Z,1.67
2019-05-10T02:45:07.038Z,1.77
2019-05-10T02:47:37.973Z,2.03
2019-05-10T02:50:09.064Z,1.50
2019-05-10T02:52:40.331Z,2.37
2019-05-10T02:55:11.233Z,2.00
2019-05-10T02:57:42.641Z,2.30
2019-05-10T03:00:14.233Z,1.87
2019-05-10T03:02:45.649Z,2.57
2019-05-10T03:05:16.539Z,1.80
2019-05-10T03:07:50.662Z,2.90
2019-05-10T03:10:21.549Z,2.00
2019-05-10T03:12:55.059Z,2.30
2019-05-10T03:15:28.923Z,2.63
2019-05-10T03:18:02.533Z,2.60
2019-05-10T03:20:35.992Z,2.50
2019-05-10T03:23:10.727Z,2.73
2019-05-10T03:25:41.605Z,2.97
2019-05-10T03:28:12.475Z,3.20
2019-05-10T03:30:43.405Z,3.77
2019-05-10T03:33:14.260Z,3.10
2019-05-10T03:35:45.536Z,3.60
2019-05-10T03:38:16.393Z,2.77
2019-05-10T03:40:47.648Z,4.00
2019-05-10T03:43:18.527Z,3.50
2019-05-10T03:45:49.450Z,3.40
2019-05-10T03:48:20.328Z,3.60
2019-05-10T03:50:51.246Z,3.27
2019-05-10T03:53:23.058Z,4.33
2019-05-10T03:55:53.970Z,3.63
2019-05-10T03:58:24.912Z,3.30
2019-05-10T04:00:55.799Z,3.27
2019-05-10T04:03:26.641Z,3.73
2019-05-10T04:05:57.513Z,3.50
2019-05-10T04:08:28.451Z,4.10
2019-05-10T04:10:59.304Z,3.63
2019-05-10T04:13:30.543Z,3.83
2019-05-10T04:16:01.518Z,4.03
2019-05-10T04:18:32.483Z,3.90
2019-05-10T04:21:03.618Z,3.87
2019-05-10T04:23:34.504Z,4.20
2019-05-10T04:26:05.404Z,3.70
2019-05-10T04:28:36.357Z,4.20
2019-05-10T04:31:07.332Z,4.47
2019-05-10T04:33:38.201Z,4.17
2019-05-10T04:36:12.263Z,6.37
2019-05-10T04:38:41.549Z,4.73
2019-05-10T04:41:12.492Z,4.23
2019-05-10T04:43:43.483Z,4.33
2019-05-10T04:46:14.370Z,4.43
2019-05-10T04:48:45.570Z,3.73
2019-05-10T04:51:16.462Z,3.60
2019-05-10T04:53:47.306Z,6.80
2019-05-10T04:56:18.210Z,4.27
2019-05-10T04:58:49.068Z,4.17
2019-05-10T05:01:19.998Z,4.33
2019-05-10T05:03:50.805Z,4.37
2019-05-10T05:06:22.026Z,3.87
2019-05-10T05:08:52.891Z,3.67
2019-05-10T05:11:23.760Z,4.73
2019-05-10T05:13:54.702Z,4.77
2019-05-10T05:16:25.569Z,4.03
2019-05-10T05:18:57.382Z,4.90
2019-05-10T05:21:28.315Z,3.63
2019-05-10T05:23:59.443Z,4.00
2019-05-10T05:26:30.316Z,3.70
2019-05-10T05:29:01.209Z,3.83
2019-05-10T05:31:33.052Z,3.50
2019-05-10T05:34:04.873Z,3.77
2019-05-10T05:36:36.677Z,3.20
2019-05-10T05:39:08.491Z,3.53
2019-05-10T05:41:47.841Z,3.73
2019-05-10T05:44:11.914Z,3.80
2019-05-10T05:46:42.757Z,3.60
2019-05-10T05:49:13.826Z,4.03
2019-05-10T05:51:44.624Z,3.13
2019-05-10T05:54:20.674Z,3.50
2019-05-10T05:56:51.122Z,3.90
2019-05-10T05:59:23.743Z,3.33
2019-05-10T06:01:53.395Z,3.07
2019-05-10T06:04:24.370Z,2.60
2019-05-10T06:06:59.170Z,4.83
2019-05-10T06:09:31.959Z,2.50
2019-05-10T06:12:00.572Z,2.63
2019-05-10T06:14:31.421Z,2.83
2019-05-10T06:17:02.384Z,3.20
2019-05-10T06:19:33.443Z,2.97
2019-05-10T06:22:06.764Z,5.20
2019-05-10T06:24:36.838Z,3.10
2019-05-10T06:27:08.033Z,2.83
2019-05-10T06:29:42.793Z,2.83
2019-05-10T06:32:11.736Z,1.95
2019-05-10T06:34:42.949Z,2.15
2019-05-10T06:37:13.755Z,2.98
2019-05-10T06:39:44.605Z,1.90
2019-05-10T06:42:15.465Z,2.02
2019-05-10T06:44:46.296Z,1.87
2019-05-10T06:47:17.248Z,2.20
2019-05-10T06:49:52.140Z,1.50
2019-05-10T06:52:21.925Z,2.17
2019-05-10T06:54:53.361Z,2.77
2019-05-10T06:57:24.200Z,1.85
2019-05-10T06:59:56.483Z,1.80
2019-05-10T07:02:32.364Z,1.82
2019-05-10T07:05:00.901Z,1.72
2019-05-10T07:07:43.079Z,1.30
2019-05-10T07:10:13.194Z,1.77
2019-05-10T07:12:37.048Z,1.50
2019-05-10T07:15:08.103Z,1.72
2019-05-10T07:17:45.338Z,1.37
2019-05-10T07:20:11.647Z,1.80
2019-05-10T07:22:43.238Z,1.80
2019-05-10T07:25:14.173Z,1.20
2019-05-10T07:27:45.045Z,1.10
2019-05-10T07:30:19.764Z,1.07
2019-05-10T07:32:54.598Z,1.25
2019-05-10T07:35:23.437Z,1.82
2019-05-10T07:37:54.404Z,1.40
2019-05-10T07:40:25.427Z,1.17
2019-05-10T07:42:56.674Z,1.20
2019-05-10T07:45:27.683Z,0.75
2019-05-10T07:48:02.377Z,1.50
2019-05-10T07:50:31.207Z,0.95
2019-05-10T07:53:02.854Z,1.47
2019-05-10T07:55:33.845Z,1.20
2019-05-10T07:58:06.751Z,1.40
2019-05-10T08:00:37.966Z,1.30
2019-05-10T08:03:16.077Z,0.65
2019-05-10T08:05:46.267Z,0.88
2019-05-10T08:08:14.954Z,0.78
2019-05-10T08:10:46.088Z,0.90
2019-05-10T08:13:21.266Z,1.10
2019-05-10T08:15:49.537Z,1.00
2019-05-10T08:18:24.133Z,0.90
2019-05-10T08:20:57.788Z,1.25
2019-05-10T08:23:27.852Z,0.90
2019-05-10T08:25:57.861Z,1.30
2019-05-10T08:28:34.003Z,1.07
2019-05-10T08:31:02.454Z,1.07
2019-05-10T08:33:33.659Z,1.15
2019-05-10T08:36:05.347Z,1.27
2019-05-10T08:38:39.699Z,1.07
2019-05-10T08:41:16.462Z,1.02
2019-05-10T08:43:43.104Z,1.10
2019-05-10T08:46:14.162Z,0.90
2019-05-10T08:48:50.341Z,0.98
2019-05-10T08:51:19.201Z,1.00
2019-05-10T08:53:53.609Z,0.70
2019-05-10T08:56:24.197Z,0.90
2019-05-10T08:58:55.634Z,1.12
2019-05-10T09:01:30.444Z,1.00
2019-05-10T09:04:06.111Z,0.98
2019-05-10T09:06:32.855Z,1.17
2019-05-10T09:09:08.534Z,0.90
2019-05-10T09:11:44.044Z,0.98
2019-05-10T09:14:19.852Z,0.95
2019-05-10T09:16:56.352Z,1.00
2019-05-10T09:19:18.943Z,0.70
2019-05-10T09:21:54.799Z,1.07
2019-05-10T09:24:23.434Z,1.47
2019-05-10T09:26:57.016Z,2.27
2019-05-10T09:29:27.447Z,1.07
2019-05-10T09:32:03.727Z,1.15
2019-05-10T09:34:32.573Z,0.93
2019-05-10T09:37:08.134Z,1.20
2019-05-10T09:39:36.335Z,1.17
2019-05-10T09:42:10.589Z,0.85
2019-05-10T09:44:40.201Z,1.65
2019-05-10T09:47:12.041Z,0.85
2019-05-10T09:49:44.932Z,1.10
2019-05-10T09:52:18.650Z,1.10
2019-05-10T09:54:49.541Z,0.80
2019-05-10T09:57:20.579Z,0.60
2019-05-10T09:59:52.579Z,1.00
2019-05-10T10:02:28.624Z,0.78
2019-05-10T10:04:58.765Z,1.55
2019-05-10T10:07:33.523Z,1.70
2019-05-10T10:10:02.925Z,1.65
2019-05-10T10:12:37.056Z,0.75
2019-05-10T10:15:10.669Z,0.70
2019-05-10T10:17:42.324Z,1.52
2019-05-10T10:20:13.542Z,1.00
2019-05-10T10:22:49.636Z,0.90
2019-05-10T10:25:18.370Z,1.10
2019-05-10T10:27:49.361Z,1.02
2019-05-10T10:30:21.557Z,0.72
2019-05-10T10:32:52.559Z,1.07
2019-05-10T10:35:27.724Z,1.10
2019-05-10T10:37:57.567Z,0.88
2019-05-10T10:40:28.554Z,0.72
2019-05-10T10:42:59.505Z,1.00
2019-05-10T10:45:30.490Z,0.95
2019-05-10T10:48:02.572Z,0.72
2019-05-10T10:50:34.068Z,3.35
2019-05-10T10:53:04.913Z,4.17
2019-05-10T10:55:39.423Z,0.70
2019-05-10T10:58:08.165Z,0.82
2019-05-10T11:00:39.384Z,0.90
2019-05-10T11:03:10.311Z,0.78
2019-05-10T11:05:41.321Z,0.93
2019-05-10T11:08:12.534Z,0.80
2019-05-10T11:10:43.797Z,1.10
2019-05-10T11:13:20.464Z,1.05
2019-05-10T11:15:51.668Z,1.00
2019-05-10T11:18:22.380Z,1.00
2019-05-10T11:20:54.227Z,0.70
2019-05-10T11:23:34.081Z,1.30
2019-05-10T11:25:57.531Z,1.00
2019-05-10T11:28:32.491Z,1.40
2019-05-10T11:31:01.183Z,0.85
2019-05-10T11:33:33.681Z,0.88
2019-05-10T11:36:08.684Z,0.90
2019-05-10T11:38:38.020Z,0.90
2019-05-10T11:41:13.621Z,1.00
2019-05-10T11:43:42.025Z,0.60
2019-05-10T11:46:12.859Z,0.80
2019-05-10T11:48:43.757Z,1.10
2019-05-10T11:51:17.307Z,0.60
2019-05-10T11:53:49.049Z,1.02
2019-05-10T11:56:26.779Z,0.90
2019-05-10T11:58:55.518Z,0.68
2019-05-10T12:01:26.306Z,0.70
2019-05-10T12:03:58.107Z,0.80
2019-05-10T12:06:31.752Z,1.07
2019-05-10T12:09:04.537Z,0.90
2019-05-10T12:11:43.760Z,2.12
2019-05-10T12:14:06.956Z,1.20
2019-05-10T12:16:41.766Z,1.17
2019-05-10T12:19:19.849Z,1.47
2019-05-10T12:21:44.306Z,0.90
2019-05-10T12:24:31.261Z,0.90
2019-05-10T12:27:12.708Z,1.02
2019-05-10T12:29:21.279Z,0.75
2019-05-10T12:31:55.933Z,1.15
2019-05-10T12:34:24.868Z,0.85
2019-05-10T12:36:57.500Z,1.00
2019-05-10T12:39:28.213Z,0.93
2019-05-10T12:41:59.164Z,1.10
2019-05-10T12:44:33.173Z,1.00
2019-05-10T12:47:02.937Z,0.70
2019-05-10T12:49:36.384Z,0.93
2019-05-10T12:52:09.137Z,1.20
2019-05-10T12:54:41.456Z,1.07
2019-05-10T12:57:11.951Z,1.52
2019-05-10T12:59:42.840Z,0.60
2019-05-10T13:02:13.735Z,0.75
2019-05-10T13:04:47.264Z,0.85
2019-05-10T13:07:17.153Z,0.98
2019-05-10T13:09:50.131Z,0.65
2019-05-10T13:12:20.568Z,0.80
2019-05-10T13:14:52.892Z,1.05
2019-05-10T13:17:24.105Z,1.30
2019-05-10T13:19:58.424Z,1.07
2019-05-10T13:22:36.626Z,1.57
2019-05-10T13:25:00.942Z,1.20
2019-05-10T13:27:31.936Z,0.75
2019-05-10T13:30:02.819Z,1.07
2019-05-10T13:32:33.933Z,1.17
2019-05-10T13:35:05.359Z,1.20
2019-05-10T13:37:36.360Z,0.90
2019-05-10T13:40:08.131Z,1.42
2019-05-10T13:42:43.171Z,1.20
2019-05-10T13:45:12.275Z,1.22
2019-05-10T13:47:43.264Z,0.98
2019-05-10T13:50:14.302Z,1.40
2019-05-10T13:52:45.239Z,2.55
2019-05-10T13:55:16.106Z,0.80
2019-05-10T13:57:47.041Z,0.85
2019-05-10T14:00:18.043Z,0.85
2019-05-10T14:02:48.923Z,0.90
2019-05-10T14:05:20.015Z,0.78
2019-05-10T14:07:52.679Z,0.60
2019-05-10T14:10:25.202Z,1.15
2019-05-10T14:13:02.174Z,1.15
2019-05-10T14:15:28.505Z,0.85
2019-05-10T14:17:59.489Z,1.12
2019-05-10T14:20:30.427Z,1.25
2019-05-10T14:23:02.622Z,1.05
2019-05-10T14:25:38.887Z,0.98
2019-05-10T14:28:13.419Z,1.10
2019-05-10T14:30:38.895Z,1.20
2019-05-10T14:33:14.934Z,1.12
2019-05-10T14:35:42.313Z,1.42
2019-05-10T14:38:13.282Z,0.93
2019-05-10T14:40:44.236Z,1.30
2019-05-10T14:43:15.043Z,0.80
2019-05-10T14:45:45.970Z,1.05
2019-05-10T14:48:28.012Z,0.80
2019-05-10T14:50:49.351Z,0.68
2019-05-10T14:53:25.466Z,0.90
2019-05-10T14:55:52.856Z,0.60
2019-05-10T14:58:23.971Z,0.82
2019-05-10T15:00:54.863Z,0.70
2019-05-10T15:03:26.043Z,0.80
2019-05-10T15:06:01.208Z,0.93
2019-05-10T15:08:29.637Z,0.70
2019-05-10T15:11:00.552Z,1.10
2019-05-10T15:13:34.799Z,0.98
2019-05-10T15:16:08.215Z,0.90
2019-05-10T15:18:36.630Z,0.90
2019-05-10T15:21:07.454Z,0.90
2019-05-10T15:23:38.267Z,0.72
2019-05-10T15:26:11.869Z,1.02
2019-05-10T15:28:42.630Z,0.88
2019-05-10T15:31:14.021Z,0.98
2019-05-10T15:33:44.879Z,0.80
2019-05-10T15:36:15.793Z,1.17
2019-05-10T15:38:51.961Z,0.90
2019-05-10T15:41:22.253Z,0.78
2019-05-10T15:43:53.401Z,0.82
2019-05-10T15:46:36.073Z,0.75
2019-05-10T15:48:57.798Z,1.07
2019-05-10T15:51:36.432Z,0.95
2019-05-10T15:54:05.151Z,0.70
2019-05-10T15:56:35.721Z,1.07
2019-05-10T15:59:06.524Z,1.12
2019-05-10T16:01:37.376Z,0.80
2019-05-10T16:04:08.239Z,1.10
2019-05-10T16:06:39.380Z,0.98
2019-05-10T16:09:17.518Z,1.60
2019-05-10T16:11:42.925Z,1.07
2019-05-10T16:14:13.843Z,1.37
2019-05-10T16:16:44.722Z,0.90
2019-05-10T16:19:18.534Z,1.22
2019-05-10T16:21:51.986Z,1.45
2019-05-10T16:24:26.267Z,1.32
2019-05-10T16:26:54.730Z,0.90
2019-05-10T16:29:26.116Z,1.40
2019-05-10T16:31:57.983Z,1.17
2019-05-10T16:34:32.251Z,1.12
2019-05-10T16:37:01.751Z,1.00
2019-05-10T16:39:32.645Z,1.05
2019-05-10T16:42:03.487Z,1.12
2019-05-10T16:44:35.396Z,1.20
2019-05-10T16:47:06.284Z,1.30
2019-05-10T16:49:37.257Z,1.40
2019-05-10T16:52:08.186Z,1.40
2019-05-10T16:54:39.026Z,2.25
2019-05-10T16:57:10.455Z,1.20
2019-05-10T16:59:41.327Z,1.90
2019-05-10T17:02:12.479Z,1.50
2019-05-10T17:04:43.283Z,1.35
2019-05-10T17:07:18.822Z,1.10
2019-05-10T17:09:49.439Z,2.85
2019-05-10T17:12:22.031Z,1.35
2019-05-10T17:14:56.394Z,1.50
2019-05-10T17:17:25.231Z,1.50
2019-05-10T17:19:58.652Z,1.27
2019-05-10T17:22:28.636Z,1.50
2019-05-10T17:25:03.165Z,1.12
2019-05-10T17:27:32.108Z,1.12
2019-05-10T17:30:02.929Z,2.30
2019-05-10T17:32:34.067Z,1.10
2019-05-10T17:35:06.728Z,1.47
2019-05-10T17:37:38.723Z,1.22
2019-05-10T17:40:10.795Z,1.30
2019-05-10T17:42:43.292Z,1.67
2019-05-10T17:45:14.782Z,1.40
2019-05-10T17:47:45.852Z,1.42
2019-05-10T17:50:17.013Z,1.50
2019-05-10T17:52:47.904Z,1.57
2019-05-10T17:55:18.823Z,1.35
2019-05-10T17:57:54.790Z,1.07
2019-05-10T18:00:22.709Z,1.15
2019-05-10T18:02:53.559Z,1.32
2019-05-10T18:05:24.406Z,1.30
2019-05-10T18:07:55.397Z,1.50
2019-05-10T18:10:27.275Z,1.03
2019-05-10T18:13:03.363Z,1.47
2019-05-10T18:15:32.926Z,1.60
2019-05-10T18:18:04.361Z,1.40
2019-05-10T18:20:42.086Z,1.37
2019-05-10T18:23:07.919Z,2.35
2019-05-10T18:25:38.904Z,1.90
2019-05-10T18:28:09.887Z,1.93
2019-05-10T18:30:40.728Z,1.80
2019-05-10T18:33:14.039Z,1.77
2019-05-10T18:35:47.587Z,1.67
2019-05-10T18:38:19.190Z,1.33
2019-05-10T18:40:50.085Z,1.83
2019-05-10T18:43:20.979Z,1.80
2019-05-10T18:45:55.343Z,1.97
2019-05-10T18:48:26.198Z,2.30
2019-05-10T18:50:57.156Z,2.57
2019-05-10T18:53:28.183Z,2.33
2019-05-10T18:55:59.128Z,3.57
2019-05-10T18:58:31.586Z,3.47
2019-05-10T19:01:02.659Z,2.00
2019-05-10T19:03:35.350Z,2.20
2019-05-10T19:06:10.936Z,2.63
2019-05-10T19:08:39.772Z,3.03
2019-05-10T19:11:11.175Z,3.00
2019-05-10T19:13:47.894Z,2.53
2019-05-10T19:16:14.512Z,2.80
2019-05-10T19:18:45.623Z,2.70
2019-05-10T19:21:16.575Z,3.20
2019-05-10T19:23:52.329Z,2.57
2019-05-10T19:26:23.777Z,3.43
2019-05-10T19:28:53.715Z,2.60
2019-05-10T19:31:31.772Z,2.43
2019-05-10T19:33:59.988Z,3.10
2019-05-10T19:36:31.137Z,2.80
2019-05-10T19:39:02.104Z,2.70
2019-05-10T19:41:34.174Z,2.40
2019-05-10T19:44:05.165Z,2.57
2019-05-10T19:46:39.257Z,2.00
2019-05-10T19:49:13.191Z,2.03
2019-05-10T19:51:47.618Z,1.90
2019-05-10T19:54:19.607Z,2.83
2019-05-10T19:56:46.894Z,2.43
2019-05-10T19:59:17.820Z,2.93
2019-05-10T20:01:48.728Z,3.57
2019-05-10T20:04:20.757Z,3.03
2019-05-10T20:06:51.621Z,3.07
2019-05-10T20:09:22.618Z,3.80
2019-05-10T20:11:53.581Z,3.30
2019-05-10T20:14:24.476Z,2.83
2019-05-10T20:16:55.738Z,3.20
2019-05-10T20:19:26.698Z,2.60
2019-05-10T20:21:57.691Z,3.30
2019-05-10T20:24:28.561Z,2.73
2019-05-10T20:26:59.498Z,3.30
2019-05-10T20:29:31.266Z,2.40
2019-05-10T20:32:02.184Z,2.97
2019-05-10T20:34:33.684Z,3.30
2019-05-10T20:37:04.592Z,3.07
2019-05-10T20:39:35.567Z,3.10
2019-05-10T20:42:06.497Z,3.77
2019-05-10T20:44:37.370Z,3.17
2019-05-10T20:47:08.332Z,3.87
2019-05-10T20:49:39.259Z,4.20
2019-05-10T20:52:10.326Z,3.63
2019-05-10T20:54:41.279Z,4.30
2019-05-10T20:57:12.173Z,4.83
2019-05-10T20:59:43.077Z,4.60
2019-05-10T21:02:13.960Z,3.60
2019-05-10T21:04:45.209Z,4.77
2019-05-10T21:07:15.984Z,4.50
2019-05-10T21:09:47.567Z,5.80
2019-05-10T21:12:18.694Z,5.27
2019-05-10T21:14:49.891Z,4.30
2019-05-10T21:17:20.812Z,4.60
2019-05-10T21:19:51.645Z,4.80
2019-05-10T21:22:22.577Z,4.60
2019-05-10T21:24:53.533Z,4.13
2019-05-10T21:27:24.486Z,4.40
2019-05-10T21:29:56.292Z,4.77
2019-05-10T21:32:27.166Z,4.30
2019-05-10T21:34:58.060Z,4.50
2019-05-10T21:37:29.031Z,4.43
2019-05-10T21:39:59.929Z,4.90
2019-05-10T21:42:30.796Z,4.13
2019-05-10T21:45:01.950Z,4.27
2019-05-10T21:47:32.853Z,4.37
2019-05-10T21:50:03.788Z,4.80
2019-05-10T21:52:34.666Z,4.37
2019-05-10T21:55:05.752Z,5.13
2019-05-10T21:57:36.656Z,4.80
2019-05-10T22:00:07.836Z,4.97
2019-05-10T22:02:40.341Z,4.57
2019-05-10T22:05:11.261Z,4.63
2019-05-10T22:07:42.089Z,4.50
2019-05-10T22:10:13.002Z,4.80
2019-05-10T22:12:44.112Z,5.03
2019-05-10T22:15:15.127Z,4.83
2019-05-10T22:17:45.996Z,4.97
2019-05-10T22:20:16.979Z,4.80
2019-05-10T22:22:47.791Z,4.00
2019-05-10T22:25:18.747Z,4.17
2019-05-10T22:27:49.963Z,4.73
2019-05-10T22:30:20.801Z,4.70
2019-05-10T22:32:51.770Z,4.03
2019-05-10T22:35:22.673Z,4.60
2019-05-10T22:37:53.665Z,4.23
2019-05-10T22:40:24.566Z,4.33
2019-05-10T22:42:55.562Z,3.93
2019-05-10T22:45:26.489Z,4.23
2019-05-10T22:47:57.639Z,3.73
2019-05-10T22:50:28.501Z,4.33
2019-05-10T22:52:59.428Z,4.30
2019-05-10T22:55:30.317Z,4.20
2019-05-10T22:58:01.437Z,4.47
2019-05-10T23:00:32.394Z,3.43
2019-05-10T23:03:03.260Z,4.33
2019-05-10T23:05:34.162Z,3.87
2019-05-10T23:08:05.323Z,4.50
2019-05-10T23:10:36.189Z,4.10
2019-05-10T23:13:08.087Z,4.13
2019-05-10T23:15:39.962Z,4.20
2019-05-10T23:18:10.838Z,3.83
2019-05-10T23:20:41.721Z,3.97
2019-05-10T23:23:12.565Z,3.83
2019-05-10T23:25:43.504Z,3.97
2019-05-10T23:28:14.361Z,3.80
2019-05-10T23:30:45.354Z,3.57
2019-05-10T23:33:16.542Z,3.77
2019-05-10T23:35:47.450Z,3.70
2019-05-10T23:38:18.391Z,4.63
2019-05-10T23:40:49.522Z,4.13
2019-05-10T23:43:20.444Z,4.23
2019-05-10T23:45:51.519Z,4.27
2019-05-10T23:48:22.395Z,4.80
2019-05-10T23:50:54.153Z,4.20
2019-05-10T23:53:25.029Z,4.40
2019-05-10T23:55:57.010Z,4.60
2019-05-10T23:58:28.010Z,5.13
